sensor_id;sensor_type;location;lat;lon;timestamp;pressure;altitude;pressure_sealevel;temperature;humidity
78509;BME280;67802;50.846;7.958;2023-09-19T06:11:21;97493.25;;;19.82;56.38
78509;BME280;67802;50.846;7.958;2023-09-19T06:13:48;97499.25;;;19.84;56.26
78509;BME280;67802;50.846;7.958;2023-09-19T06:16:13;97491.34;;;19.84;56.45
78509;BME280;67802;50.846;7.958;2023-09-19T06:18:39;97500.91;;;19.85;56.44
78509;BME280;67802;50.846;7.958;2023-09-19T06:21:04;97505.22;;;19.86;56.40
78509;BME280;67802;50.846;7.958;2023-09-19T06:23:33;97513.13;;;19.86;56.41
78509;BME280;67802;50.846;7.958;2023-09-19T06:25:59;97517.44;;;19.87;56.53
78509;BME280;67802;50.846;7.958;2023-09-19T06:28:24;97515.59;;;19.87;56.34
78509;BME280;67802;50.846;7.958;2023-09-19T06:30:52;97515.53;;;19.89;56.21
78509;BME280;67802;50.846;7.958;2023-09-19T06:33:17;97511.91;;;19.90;56.15
78509;BME280;67802;50.846;7.958;2023-09-19T06:35:43;97503.88;;;19.92;56.21
78509;BME280;67802;50.846;7.958;2023-09-19T06:38:12;97505.53;;;19.93;56.28
78509;BME280;67802;50.846;7.958;2023-09-19T06:40:38;97517.63;;;19.95;56.41
78509;BME280;67802;50.846;7.958;2023-09-19T06:43:04;97524.56;;;19.96;55.85
78509;BME280;67802;50.846;7.958;2023-09-19T06:45:30;97528.88;;;19.97;55.66
78509;BME280;67802;50.846;7.958;2023-09-19T06:47:57;97533.19;;;19.98;55.75
78509;BME280;67802;50.846;7.958;2023-09-19T06:50:23;97540.13;;;19.99;55.96
78509;BME280;67802;50.846;7.958;2023-09-19T06:52:53;97547.88;;;20.01;55.93
78509;BME280;67802;50.846;7.958;2023-09-19T06:55:20;97546.09;;;20.01;55.91
78509;BME280;67802;50.846;7.958;2023-09-19T06:57:47;97547.78;;;20.02;55.37
78509;BME280;67802;50.846;7.958;2023-09-19T07:00:13;97545.84;;;20.05;55.53
78509;BME280;67802;50.846;7.958;2023-09-19T07:05:28;97556.38;;;20.05;55.50
78509;BME280;67802;50.846;7.958;2023-09-19T07:07:54;97552.78;;;20.06;55.71
78509;BME280;67802;50.846;7.958;2023-09-19T07:10:21;97556.25;;;20.06;55.61
78509;BME280;67802;50.846;7.958;2023-09-19T07:12:57;97554.44;;;20.07;55.56
78509;BME280;67802;50.846;7.958;2023-09-19T07:15:23;97562.22;;;20.08;55.38
78509;BME280;67802;50.846;7.958;2023-09-19T07:17:53;97566.66;;;20.08;55.34
78509;BME280;67802;50.846;7.958;2023-09-19T07:20:19;97568.34;;;20.09;55.32
78509;BME280;67802;50.846;7.958;2023-09-19T07:22:45;97577.22;;;20.08;55.32
78509;BME280;67802;50.846;7.958;2023-09-19T07:25:12;97566.66;;;20.08;55.46
78509;BME280;67802;50.846;7.958;2023-09-19T07:27:40;97574.56;;;20.08;55.17
78509;BME280;67802;50.846;7.958;2023-09-19T07:30:06;97566.66;;;20.08;55.07
78509;BME280;67802;50.846;7.958;2023-09-19T07:32:31;97579.84;;;20.08;54.85
78509;BME280;67802;50.846;7.958;2023-09-19T07:34:57;97583.31;;;20.08;54.76
78509;BME280;67802;50.846;7.958;2023-09-19T07:37:22;97577.22;;;20.08;54.76
78509;BME280;67802;50.846;7.958;2023-09-19T07:39:50;97566.66;;;20.08;54.76
78509;BME280;67802;50.846;7.958;2023-09-19T07:42:16;97575.41;;;20.08;54.74
78509;BME280;67802;50.846;7.958;2023-09-19T07:44:43;97563.88;;;20.09;54.77
78509;BME280;67802;50.846;7.958;2023-09-19T07:47:12;97569.16;;;20.09;54.51
78509;BME280;67802;50.846;7.958;2023-09-19T07:49:37;97572.66;;;20.10;54.38
78509;BME280;67802;50.846;7.958;2023-09-19T07:52:03;97574.44;;;20.09;54.43
78509;BME280;67802;50.846;7.958;2023-09-19T07:54:29;97558.59;;;20.09;54.12
78509;BME280;67802;50.846;7.958;2023-09-19T07:56:55;97573.59;;;20.09;54.34
78509;BME280;67802;50.846;7.958;2023-09-19T07:59:21;97575.28;;;20.10;54.41
78509;BME280;67802;50.846;7.958;2023-09-19T08:01:46;97563.06;;;20.09;54.19
78509;BME280;67802;50.846;7.958;2023-09-19T08:04:12;97564.03;;;20.08;54.15
78509;BME280;67802;50.846;7.958;2023-09-19T08:06:38;97571.94;;;20.08;53.92
78509;BME280;67802;50.846;7.958;2023-09-19T08:09:04;97562.22;;;20.08;54.02
78509;BME280;67802;50.846;7.958;2023-09-19T08:11:35;97571.94;;;20.08;53.70
78509;BME280;67802;50.846;7.958;2023-09-19T08:14:01;97575.53;;;20.07;53.69
78509;BME280;67802;50.846;7.958;2023-09-19T08:16:26;97575.53;;;20.07;53.75
78509;BME280;67802;50.846;7.958;2023-09-19T08:18:52;97587.06;;;20.06;53.67
78509;BME280;67802;50.846;7.958;2023-09-19T08:21:20;97588.84;;;20.05;53.61
78509;BME280;67802;50.846;7.958;2023-09-19T08:23:45;97585.38;;;20.05;53.86
78509;BME280;67802;50.846;7.958;2023-09-19T08:26:11;97595.78;;;20.06;53.74
78509;BME280;67802;50.846;7.958;2023-09-19T08:28:36;97594.97;;;20.06;53.82
78509;BME280;67802;50.846;7.958;2023-09-19T08:31:03;97593.28;;;20.05;53.92
78509;BME280;67802;50.846;7.958;2023-09-19T08:33:35;97590.66;;;20.05;53.89
78509;BME280;67802;50.846;7.958;2023-09-19T08:36:01;97601.22;;;20.05;53.81
78509;BME280;67802;50.846;7.958;2023-09-19T08:38:30;97601.22;;;20.05;54.01
78509;BME280;67802;50.846;7.958;2023-09-19T08:41:00;97603.84;;;20.05;53.89
78509;BME280;67802;50.846;7.958;2023-09-19T08:43:28;97604.81;;;20.04;53.75
78509;BME280;67802;50.846;7.958;2023-09-19T08:48:31;97610.91;;;20.04;53.62
78509;BME280;67802;50.846;7.958;2023-09-19T08:51:03;97601.31;;;20.03;53.43
78509;BME280;67802;50.846;7.958;2023-09-19T08:53:41;97602.19;;;20.04;53.53
78509;BME280;67802;50.846;7.958;2023-09-19T08:56:11;97612.72;;;20.04;53.82
78509;BME280;67802;50.846;7.958;2023-09-19T08:58:46;97609.22;;;20.03;53.75
78509;BME280;67802;50.846;7.958;2023-09-19T09:01:14;97618.00;;;20.04;53.77
78509;BME280;67802;50.846;7.958;2023-09-19T09:03:41;97615.47;;;20.02;53.52
78509;BME280;67802;50.846;7.958;2023-09-19T09:06:08;97605.78;;;20.02;53.58
78509;BME280;67802;50.846;7.958;2023-09-19T09:08:38;97613.69;;;20.02;53.60
78509;BME280;67802;50.846;7.958;2023-09-19T09:11:05;97612.72;;;20.04;53.44
78509;BME280;67802;50.846;7.958;2023-09-19T09:13:34;97620.75;;;20.02;53.42
78509;BME280;67802;50.846;7.958;2023-09-19T09:16:00;97617.84;;;20.05;53.66
78509;BME280;67802;50.846;7.958;2023-09-19T09:18:26;97609.13;;;20.05;53.68
78509;BME280;67802;50.846;7.958;2023-09-19T09:20:51;97608.16;;;20.06;53.69
78509;BME280;67802;50.846;7.958;2023-09-19T09:23:16;97607.19;;;20.07;53.80
78509;BME280;67802;50.846;7.958;2023-09-19T09:25:55;97614.13;;;20.08;53.92
78509;BME280;67802;50.846;7.958;2023-09-19T09:28:23;97622.75;;;20.10;53.79
78509;BME280;67802;50.846;7.958;2023-09-19T09:30:48;97608.72;;;20.09;53.67
78509;BME280;67802;50.846;7.958;2023-09-19T09:33:15;97613.88;;;20.11;53.87
78509;BME280;67802;50.846;7.958;2023-09-19T09:35:51;97615.53;;;20.12;53.82
78509;BME280;67802;50.846;7.958;2023-09-19T09:38:23;97628.72;;;20.12;53.95
78509;BME280;67802;50.846;7.958;2023-09-19T09:40:58;97615.53;;;20.12;53.78
78509;BME280;67802;50.846;7.958;2023-09-19T09:46:16;97618.03;;;20.13;53.81
78509;BME280;67802;50.846;7.958;2023-09-19T09:48:48;97617.22;;;20.13;53.51
78509;BME280;67802;50.846;7.958;2023-09-19T09:51:47;97619.69;;;20.14;53.61
78509;BME280;67802;50.846;7.958;2023-09-19T09:54:23;97618.84;;;20.14;53.49
78509;BME280;67802;50.846;7.958;2023-09-19T09:56:56;97623.31;;;20.13;53.54
78509;BME280;67802;50.846;7.958;2023-09-19T10:02:15;97616.22;;;20.14;53.35
78509;BME280;67802;50.846;7.958;2023-09-19T10:04:48;97609.28;;;20.13;53.27
78509;BME280;67802;50.846;7.958;2023-09-19T10:07:29;97615.38;;;20.13;53.29
78509;BME280;67802;50.846;7.958;2023-09-19T10:09:59;97613.56;;;20.14;53.29
78509;BME280;67802;50.846;7.958;2023-09-19T10:12:38;97608.31;;;20.14;53.27
78509;BME280;67802;50.846;7.958;2023-09-19T10:15:06;97620.53;;;20.15;53.52
78509;BME280;67802;50.846;7.958;2023-09-19T10:17:34;97608.31;;;20.14;53.37
78509;BME280;67802;50.846;7.958;2023-09-19T10:20:01;97597.75;;;20.14;53.39
78509;BME280;67802;50.846;7.958;2023-09-19T10:22:46;97607.34;;;20.15;53.28
78509;BME280;67802;50.846;7.958;2023-09-19T10:25:24;97592.47;;;20.14;53.26
78509;BME280;67802;50.846;7.958;2023-09-19T10:27:51;97596.78;;;20.15;53.35
78509;BME280;67802;50.846;7.958;2023-09-19T10:30:19;97597.75;;;20.14;53.30
78509;BME280;67802;50.846;7.958;2023-09-19T10:32:46;97586.38;;;20.13;53.22
78509;BME280;67802;50.846;7.958;2023-09-19T10:35:14;97588.88;;;20.15;53.29
78509;BME280;67802;50.846;7.958;2023-09-19T10:37:44;97591.41;;;20.16;53.49
78509;BME280;67802;50.846;7.958;2023-09-19T10:40:10;97595.81;;;20.16;53.23
78509;BME280;67802;50.846;7.958;2023-09-19T10:42:38;97583.59;;;20.15;52.94
78509;BME280;67802;50.846;7.958;2023-09-19T10:45:03;97583.59;;;20.15;53.03
78509;BME280;67802;50.846;7.958;2023-09-19T10:47:37;97595.81;;;20.16;53.03
78509;BME280;67802;50.846;7.958;2023-09-19T10:50:03;97574.88;;;20.14;53.10
78509;BME280;67802;50.846;7.958;2023-09-19T10:52:31;97587.19;;;20.14;53.25
78509;BME280;67802;50.846;7.958;2023-09-19T10:55:00;97587.19;;;20.14;53.17
78509;BME280;67802;50.846;7.958;2023-09-19T10:57:26;97594.16;;;20.15;53.03
78509;BME280;67802;50.846;7.958;2023-09-19T11:00:10;97597.75;;;20.14;52.91
78509;BME280;67802;50.846;7.958;2023-09-19T11:05:34;97592.47;;;20.14;53.23
78509;BME280;67802;50.846;7.958;2023-09-19T11:08:00;97581.94;;;20.14;53.17
78509;BME280;67802;50.846;7.958;2023-09-19T11:10:45;97586.38;;;20.13;53.14
78509;BME280;67802;50.846;7.958;2023-09-19T11:13:27;97597.75;;;20.14;53.30
78509;BME280;67802;50.846;7.958;2023-09-19T11:26:40;97589.16;;;20.12;52.87
78509;BME280;67802;50.846;7.958;2023-09-19T11:29:29;97585.56;;;20.13;52.79
78509;BME280;67802;50.846;7.958;2023-09-19T11:31:55;97580.28;;;20.13;52.72
78509;BME280;67802;50.846;7.958;2023-09-19T11:34:44;97579.44;;;20.12;52.82
78509;BME280;67802;50.846;7.958;2023-09-19T11:40:10;97588.06;;;20.14;53.09
78509;BME280;67802;50.846;7.958;2023-09-19T11:42:46;97577.50;;;20.14;52.94
78509;BME280;67802;50.846;7.958;2023-09-19T11:48:15;97574.00;;;20.14;52.88
78509;BME280;67802;50.846;7.958;2023-09-19T11:50:44;97577.50;;;20.14;52.84
78509;BME280;67802;50.846;7.958;2023-09-19T11:53:11;97574.00;;;20.14;52.78
78509;BME280;67802;50.846;7.958;2023-09-19T11:55:38;97581.94;;;20.14;52.61
78509;BME280;67802;50.846;7.958;2023-09-19T11:58:06;97585.56;;;20.13;52.54
78509;BME280;67802;50.846;7.958;2023-09-19T12:00:33;97584.56;;;20.14;52.55
78509;BME280;67802;50.846;7.958;2023-09-19T12:03:04;97598.59;;;20.14;52.81
78509;BME280;67802;50.846;7.958;2023-09-19T12:05:34;97599.41;;;20.15;52.73
78509;BME280;67802;50.846;7.958;2023-09-19T12:08:00;97593.19;;;20.16;52.86
78509;BME280;67802;50.846;7.958;2023-09-19T12:10:26;97593.19;;;20.16;53.13
78509;BME280;67802;50.846;7.958;2023-09-19T12:12:52;97599.16;;;20.18;53.18
78509;BME280;67802;50.846;7.958;2023-09-19T12:15:25;97604.44;;;20.18;53.24
78509;BME280;67802;50.846;7.958;2023-09-19T12:17:54;97600.00;;;20.19;53.24
78509;BME280;67802;50.846;7.958;2023-09-19T12:20:19;97607.78;;;20.20;53.22
78509;BME280;67802;50.846;7.958;2023-09-19T12:22:46;97595.28;;;20.22;53.33
78509;BME280;67802;50.846;7.958;2023-09-19T12:25:14;97596.13;;;20.23;53.43
78509;BME280;67802;50.846;7.958;2023-09-19T12:27:46;97600.44;;;20.24;53.47
78509;BME280;67802;50.846;7.958;2023-09-19T12:30:13;97591.69;;;20.23;53.52
78509;BME280;67802;50.846;7.958;2023-09-19T12:32:43;97592.53;;;20.24;53.42
78509;BME280;67802;50.846;7.958;2023-09-19T12:35:09;97608.47;;;20.22;53.36
78509;BME280;67802;50.846;7.958;2023-09-19T12:37:51;97594.47;;;20.22;53.08
78509;BME280;67802;50.846;7.958;2023-09-19T12:40:21;97600.56;;;20.22;52.95
78509;BME280;67802;50.846;7.958;2023-09-19T12:42:53;97578.75;;;20.20;52.50
78509;BME280;67802;50.846;7.958;2023-09-19T12:45:20;97582.38;;;20.19;52.37
78509;BME280;67802;50.846;7.958;2023-09-19T12:53:43;97577.09;;;20.19;52.96
78509;BME280;67802;50.846;7.958;2023-09-19T12:56:12;97585.84;;;20.20;52.96
78509;BME280;67802;50.846;7.958;2023-09-19T12:58:56;97574.47;;;20.19;52.96
78509;BME280;67802;50.846;7.958;2023-09-19T13:01:24;97574.47;;;20.19;52.88
78509;BME280;67802;50.846;7.958;2023-09-19T13:04:12;97568.47;;;20.17;52.78
78509;BME280;67802;50.846;7.958;2023-09-19T13:06:38;97566.81;;;20.16;52.64
78509;BME280;67802;50.846;7.958;2023-09-19T13:09:11;97561.53;;;20.16;52.94
78509;BME280;67802;50.846;7.958;2023-09-19T13:11:38;97570.16;;;20.18;52.98
78509;BME280;67802;50.846;7.958;2023-09-19T13:14:25;97568.47;;;20.17;52.96
78509;BME280;67802;50.846;7.958;2023-09-19T13:17:03;97557.94;;;20.17;53.04
78509;BME280;67802;50.846;7.958;2023-09-19T13:19:44;97555.28;;;20.17;52.98
78509;BME280;67802;50.846;7.958;2023-09-19T13:22:45;97554.47;;;20.16;53.16
78509;BME280;67802;50.846;7.958;2023-09-19T13:25:16;97543.94;;;20.16;53.27
78509;BME280;67802;50.846;7.958;2023-09-19T13:27:49;97549.31;;;20.15;53.17
78509;BME280;67802;50.846;7.958;2023-09-19T13:30:16;97548.34;;;20.16;53.04
78509;BME280;67802;50.846;7.958;2023-09-19T13:32:42;97550.28;;;20.14;53.21
78509;BME280;67802;50.846;7.958;2023-09-19T13:35:09;97556.25;;;20.16;53.33
78509;BME280;67802;50.846;7.958;2023-09-19T13:37:35;97555.56;;;20.14;53.19
78509;BME280;67802;50.846;7.958;2023-09-19T13:40:09;97545.00;;;20.14;53.37
78509;BME280;67802;50.846;7.958;2023-09-19T13:42:35;97551.94;;;20.15;53.35
78509;BME280;67802;50.846;7.958;2023-09-19T13:45:02;97547.53;;;20.15;53.51
78509;BME280;67802;50.846;7.958;2023-09-19T13:47:28;97538.78;;;20.15;53.48
78509;BME280;67802;50.846;7.958;2023-09-19T13:49:54;97528.22;;;20.15;53.49
78509;BME280;67802;50.846;7.958;2023-09-19T13:52:20;97532.53;;;20.16;53.42
78509;BME280;67802;50.846;7.958;2023-09-19T13:54:45;97528.09;;;20.16;53.47
78509;BME280;67802;50.846;7.958;2023-09-19T13:57:10;97530.03;;;20.14;53.58
78509;BME280;67802;50.846;7.958;2023-09-19T13:59:36;97515.03;;;20.15;53.65
78509;BME280;67802;50.846;7.958;2023-09-19T14:02:01;97519.34;;;20.16;53.62
78509;BME280;67802;50.846;7.958;2023-09-19T14:04:30;97516.69;;;20.16;53.63
78509;BME280;67802;50.846;7.958;2023-09-19T14:06:56;97512.28;;;20.16;53.66
78509;BME280;67802;50.846;7.958;2023-09-19T14:09:23;97519.34;;;20.16;53.68
78509;BME280;67802;50.846;7.958;2023-09-19T14:11:50;97509.75;;;20.15;53.90
78509;BME280;67802;50.846;7.958;2023-09-19T14:14:21;97516.69;;;20.16;53.81
78509;BME280;67802;50.846;7.958;2023-09-19T14:16:47;97514.78;;;20.18;53.81
78509;BME280;67802;50.846;7.958;2023-09-19T14:19:13;97510.47;;;20.17;53.92
78509;BME280;67802;50.846;7.958;2023-09-19T14:21:40;97509.50;;;20.18;53.87
78509;BME280;67802;50.846;7.958;2023-09-19T14:24:05;97508.69;;;20.17;54.19
78509;BME280;67802;50.846;7.958;2023-09-19T14:26:38;97502.56;;;20.17;53.89
78509;BME280;67802;50.846;7.958;2023-09-19T14:29:03;97507.81;;;20.17;53.87
78509;BME280;67802;50.846;7.958;2023-09-19T14:31:29;97515.63;;;20.19;53.69
78509;BME280;67802;50.846;7.958;2023-09-19T14:33:55;97524.34;;;20.19;53.93
78509;BME280;67802;50.846;7.958;2023-09-19T14:36:22;97526.00;;;20.20;54.10
78509;BME280;67802;50.846;7.958;2023-09-19T14:38:47;97522.56;;;20.20;54.02
78509;BME280;67802;50.846;7.958;2023-09-19T14:41:13;97515.47;;;20.20;53.86
78509;BME280;67802;50.846;7.958;2023-09-19T14:43:38;97521.72;;;20.19;53.88
78509;BME280;67802;50.846;7.958;2023-09-19T14:46:07;97528.66;;;20.20;53.99
78509;BME280;67802;50.846;7.958;2023-09-19T14:48:33;97510.34;;;20.19;53.90
78509;BME280;67802;50.846;7.958;2023-09-19T14:51:05;97517.28;;;20.20;53.86
78509;BME280;67802;50.846;7.958;2023-09-19T14:53:31;97517.13;;;20.21;53.79
78509;BME280;67802;50.846;7.958;2023-09-19T14:55:56;97515.47;;;20.20;54.08
78509;BME280;67802;50.846;7.958;2023-09-19T14:58:24;97519.78;;;20.21;53.90
78509;BME280;67802;50.846;7.958;2023-09-19T15:00:51;97515.34;;;20.22;53.96
78509;BME280;67802;50.846;7.958;2023-09-19T15:03:17;97519.78;;;20.21;53.92
78509;BME280;67802;50.846;7.958;2023-09-19T15:05:43;97505.88;;;20.19;53.93
78509;BME280;67802;50.846;7.958;2023-09-19T15:08:08;97508.41;;;20.21;53.84
78509;BME280;67802;50.846;7.958;2023-09-19T15:10:34;97510.06;;;20.22;53.90
78509;BME280;67802;50.846;7.958;2023-09-19T15:12:59;97510.19;;;20.20;54.01
78509;BME280;67802;50.846;7.958;2023-09-19T15:15:25;97517.84;;;20.23;54.00
78509;BME280;67802;50.846;7.958;2023-09-19T15:17:50;97507.28;;;20.23;53.84
78509;BME280;67802;50.846;7.958;2023-09-19T15:20:16;97512.56;;;20.23;53.96
78509;BME280;67802;50.846;7.958;2023-09-19T15:22:43;97511.59;;;20.24;53.77
78509;BME280;67802;50.846;7.958;2023-09-19T15:25:08;97513.41;;;20.24;53.89
78509;BME280;67802;50.846;7.958;2023-09-19T15:27:33;97514.22;;;20.24;53.80
78509;BME280;67802;50.846;7.958;2023-09-19T15:29:59;97512.56;;;20.23;54.05
78509;BME280;67802;50.846;7.958;2023-09-19T15:32:26;97510.78;;;20.24;53.90
78509;BME280;67802;50.846;7.958;2023-09-19T15:34:51;97515.19;;;20.23;53.94
78509;BME280;67802;50.846;7.958;2023-09-19T15:37:16;97521.44;;;20.22;53.91
78509;BME280;67802;50.846;7.958;2023-09-19T15:39:41;97517.03;;;20.23;53.73
78509;BME280;67802;50.846;7.958;2023-09-19T15:42:09;97515.34;;;20.22;53.64
78509;BME280;67802;50.846;7.958;2023-09-19T15:44:35;97502.00;;;20.23;53.88
78509;BME280;67802;50.846;7.958;2023-09-19T15:47:02;97505.63;;;20.22;53.75
78509;BME280;67802;50.846;7.958;2023-09-19T15:49:28;97497.72;;;20.22;53.87
78509;BME280;67802;50.846;7.958;2023-09-19T15:51:53;97488.97;;;20.22;53.78
78509;BME280;67802;50.846;7.958;2023-09-19T15:54:19;97488.13;;;20.21;53.64
78509;BME280;67802;50.846;7.958;2023-09-19T15:56:45;97495.06;;;20.22;53.76
78509;BME280;67802;50.846;7.958;2023-09-19T15:59:12;97498.56;;;20.23;53.70
78509;BME280;67802;50.846;7.958;2023-09-19T16:01:39;97494.25;;;20.22;53.69
78509;BME280;67802;50.846;7.958;2023-09-19T16:04:06;97499.53;;;20.22;53.69
78509;BME280;67802;50.846;7.958;2023-09-19T16:06:34;97502.16;;;20.22;53.74
78509;BME280;67802;50.846;7.958;2023-09-19T16:09:00;97499.53;;;20.22;53.60
78509;BME280;67802;50.846;7.958;2023-09-19T16:11:29;97496.03;;;20.21;53.66
78509;BME280;67802;50.846;7.958;2023-09-19T16:13:55;97503.94;;;20.21;53.78
78509;BME280;67802;50.846;7.958;2023-09-19T16:16:21;97497.00;;;20.20;53.71
78509;BME280;67802;50.846;7.958;2023-09-19T16:18:53;97499.53;;;20.22;53.72
78509;BME280;67802;50.846;7.958;2023-09-19T16:21:29;97506.59;;;20.21;53.62
78509;BME280;67802;50.846;7.958;2023-09-19T16:23:56;97506.75;;;20.20;53.69
78509;BME280;67802;50.846;7.958;2023-09-19T16:26:22;97508.41;;;20.21;53.67
78509;BME280;67802;50.846;7.958;2023-09-19T16:28:53;97510.19;;;20.20;53.71
78509;BME280;67802;50.846;7.958;2023-09-19T16:31:19;97521.72;;;20.19;53.79
78509;BME280;67802;50.846;7.958;2023-09-19T16:33:46;97522.56;;;20.20;53.83
78509;BME280;67802;50.846;7.958;2023-09-19T16:36:18;97517.28;;;20.20;53.65
78509;BME280;67802;50.846;7.958;2023-09-19T16:38:46;97526.97;;;20.19;53.63
78509;BME280;67802;50.846;7.958;2023-09-19T16:41:12;97515.63;;;20.19;53.70
78509;BME280;67802;50.846;7.958;2023-09-19T16:43:38;97519.22;;;20.17;53.59
78509;BME280;67802;50.846;7.958;2023-09-19T16:46:08;97520.91;;;20.19;53.69
78509;BME280;67802;50.846;7.958;2023-09-19T16:48:36;97525.31;;;20.18;53.72
78509;BME280;67802;50.846;7.958;2023-09-19T16:51:04;97518.38;;;20.17;53.57
78509;BME280;67802;50.846;7.958;2023-09-19T16:53:30;97525.31;;;20.18;53.72
78509;BME280;67802;50.846;7.958;2023-09-19T16:56:01;97526.28;;;20.17;53.57
78509;BME280;67802;50.846;7.958;2023-09-19T16:58:26;97522.69;;;20.18;53.60
78509;BME280;67802;50.846;7.958;2023-09-19T17:00:52;97535.88;;;20.18;53.71
78509;BME280;67802;50.846;7.958;2023-09-19T17:03:17;97531.56;;;20.17;53.73
78509;BME280;67802;50.846;7.958;2023-09-19T17:05:44;97532.53;;;20.16;53.66
78509;BME280;67802;50.846;7.958;2023-09-19T17:08:09;97528.22;;;20.15;53.69
78509;BME280;67802;50.846;7.958;2023-09-19T17:10:35;97533.50;;;20.15;53.69
78509;BME280;67802;50.846;7.958;2023-09-19T17:13:02;97532.53;;;20.16;53.62
78509;BME280;67802;50.846;7.958;2023-09-19T17:15:32;97530.84;;;20.15;53.65
78509;BME280;67802;50.846;7.958;2023-09-19T17:17:58;97529.88;;;20.16;53.71
78509;BME280;67802;50.846;7.958;2023-09-19T17:20:24;97527.41;;;20.14;53.68
78509;BME280;67802;50.846;7.958;2023-09-19T17:22:49;97529.19;;;20.14;53.65
78509;BME280;67802;50.846;7.958;2023-09-19T17:25:15;97529.19;;;20.14;53.62
78509;BME280;67802;50.846;7.958;2023-09-19T17:27:42;97529.19;;;20.14;53.59
78509;BME280;67802;50.846;7.958;2023-09-19T17:30:09;97529.19;;;20.14;53.60
78509;BME280;67802;50.846;7.958;2023-09-19T17:32:43;97534.47;;;20.14;53.90
78509;BME280;67802;50.846;7.958;2023-09-19T17:35:09;97535.31;;;20.14;53.66
78509;BME280;67802;50.846;7.958;2023-09-19T17:37:35;97530.03;;;20.14;53.69
78509;BME280;67802;50.846;7.958;2023-09-19T17:40:00;97530.03;;;20.14;53.70
78509;BME280;67802;50.846;7.958;2023-09-19T17:42:29;97529.19;;;20.14;53.55
78509;BME280;67802;50.846;7.958;2023-09-19T17:44:55;97526.56;;;20.14;53.70
78509;BME280;67802;50.846;7.958;2023-09-19T17:47:20;97525.72;;;20.13;53.58
78509;BME280;67802;50.846;7.958;2023-09-19T17:49:47;97518.63;;;20.14;53.68
78509;BME280;67802;50.846;7.958;2023-09-19T17:52:15;97520.47;;;20.13;53.81
78509;BME280;67802;50.846;7.958;2023-09-19T17:54:41;97523.09;;;20.13;53.76
78509;BME280;67802;50.846;7.958;2023-09-19T17:57:08;97517.81;;;20.13;53.71
78509;BME280;67802;50.846;7.958;2023-09-19T17:59:33;97517.81;;;20.13;53.69
78509;BME280;67802;50.846;7.958;2023-09-19T18:01:59;97526.69;;;20.12;53.67
78509;BME280;67802;50.846;7.958;2023-09-19T18:04:24;97526.69;;;20.12;53.80
78509;BME280;67802;50.846;7.958;2023-09-19T18:06:49;97532.81;;;20.13;53.65
78509;BME280;67802;50.846;7.958;2023-09-19T18:09:15;97533.78;;;20.12;53.69
78509;BME280;67802;50.846;7.958;2023-09-19T18:11:43;97532.81;;;20.13;53.60
78509;BME280;67802;50.846;7.958;2023-09-19T18:14:08;97537.25;;;20.12;53.67
78509;BME280;67802;50.846;7.958;2023-09-19T18:16:35;97531.16;;;20.12;53.58
78509;BME280;67802;50.846;7.958;2023-09-19T18:19:02;97543.38;;;20.13;53.78
78509;BME280;67802;50.846;7.958;2023-09-19T18:21:28;97541.69;;;20.12;53.61
78509;BME280;67802;50.846;7.958;2023-09-19T18:23:58;97541.69;;;20.12;53.75
78509;BME280;67802;50.846;7.958;2023-09-19T18:26:27;97543.50;;;20.11;53.68
78509;BME280;67802;50.846;7.958;2023-09-19T18:28:53;97550.59;;;20.11;53.68
78509;BME280;67802;50.846;7.958;2023-09-19T18:31:18;97547.09;;;20.10;53.48
78509;BME280;67802;50.846;7.958;2023-09-19T18:33:44;97540.03;;;20.11;53.75
78509;BME280;67802;50.846;7.958;2023-09-19T18:36:12;97544.47;;;20.10;53.71
78509;BME280;67802;50.846;7.958;2023-09-19T18:38:38;97546.28;;;20.10;53.60
78509;BME280;67802;50.846;7.958;2023-09-19T18:41:09;97548.91;;;20.10;53.87
78509;BME280;67802;50.846;7.958;2023-09-19T18:43:37;97554.19;;;20.10;53.68
78509;BME280;67802;50.846;7.958;2023-09-19T18:46:04;97553.34;;;20.09;53.62
78509;BME280;67802;50.846;7.958;2023-09-19T18:48:31;97554.19;;;20.10;53.85
78509;BME280;67802;50.846;7.958;2023-09-19T18:50:56;97557.78;;;20.09;53.75
78509;BME280;67802;50.846;7.958;2023-09-19T18:53:21;97552.50;;;20.09;53.62
78509;BME280;67802;50.846;7.958;2023-09-19T18:55:47;97556.13;;;20.08;53.82
78509;BME280;67802;50.846;7.958;2023-09-19T18:58:14;97556.94;;;20.08;53.75
78509;BME280;67802;50.846;7.958;2023-09-19T19:00:40;97559.56;;;20.08;53.45
78509;BME280;67802;50.846;7.958;2023-09-19T19:03:05;97561.41;;;20.08;53.11
78509;BME280;67802;50.846;7.958;2023-09-19T19:05:31;97558.75;;;20.08;53.23
78509;BME280;67802;50.846;7.958;2023-09-19T19:08:02;97567.63;;;20.07;52.99
78509;BME280;67802;50.846;7.958;2023-09-19T19:10:27;97575.53;;;20.07;52.94
78509;BME280;67802;50.846;7.958;2023-09-19T19:12:53;97562.47;;;20.05;53.04
78509;BME280;67802;50.846;7.958;2023-09-19T19:15:18;97570.38;;;20.05;52.75
78509;BME280;67802;50.846;7.958;2023-09-19T19:17:43;97572.19;;;20.05;53.04
78509;BME280;67802;50.846;7.958;2023-09-19T19:20:09;97560.00;;;20.04;53.01
78509;BME280;67802;50.846;7.958;2023-09-19T19:22:35;97571.63;;;20.01;52.74
78509;BME280;67802;50.846;7.958;2023-09-19T19:25:02;97566.34;;;20.01;52.87
78509;BME280;67802;50.846;7.958;2023-09-19T19:27:29;97570.78;;;20.00;52.90
78509;BME280;67802;50.846;7.958;2023-09-19T19:29:55;97569.94;;;20.00;52.90
78509;BME280;67802;50.846;7.958;2023-09-19T19:32:20;97574.41;;;19.99;52.90
78509;BME280;67802;50.846;7.958;2023-09-19T19:34:50;97571.88;;;19.98;52.79
78509;BME280;67802;50.846;7.958;2023-09-19T19:37:15;97576.34;;;19.97;52.67
78509;BME280;67802;50.846;7.958;2023-09-19T19:39:43;97573.00;;;19.95;52.53
78509;BME280;67802;50.846;7.958;2023-09-19T19:42:08;97566.06;;;19.94;52.66
78509;BME280;67802;50.846;7.958;2023-09-19T19:44:34;97576.59;;;19.94;52.79
78509;BME280;67802;50.846;7.958;2023-09-19T19:46:59;97567.00;;;19.93;52.65
78509;BME280;67802;50.846;7.958;2023-09-19T19:49:25;97566.31;;;19.91;52.36
78509;BME280;67802;50.846;7.958;2023-09-19T19:51:51;97580.47;;;19.90;52.49